sensor_id;sensor_type;location;lat;lon;timestamp;P1;durP1;ratioP1;P2;durP2;ratioP2
45642;SDS011;31358;46.008;11.144;2023-03-23T00:02:26;34.83;;;20.83;;
45642;SDS011;31358;46.008;11.144;2023-03-23T00:04:54;30.92;;;18.58;;
45642;SDS011;31358;46.008;11.144;2023-03-23T00:07:20;31.17;;;19.08;;
45642;SDS011;31358;46.008;11.144;2023-03-23T00:09:50;34.22;;;18.20;;
45642;SDS011;31358;46.008;11.144;2023-03-23T00:12:26;36.08;;;20.17;;
45642;SDS011;31358;46.008;11.144;2023-03-23T00:14:59;33.85;;;20.58;;
45642;SDS011;31358;46.008;11.144;2023-03-23T00:17:26;38.45;;;21.27;;
45642;SDS011;31358;46.008;11.144;2023-03-23T00:19:53;33.30;;;20.25;;
45642;SDS011;31358;46.008;11.144;2023-03-23T00:22:19;33.05;;;20.98;;
45642;SDS011;31358;46.008;11.144;2023-03-23T00:24:46;32.22;;;20.55;;
45642;SDS011;31358;46.008;11.144;2023-03-23T00:27:15;32.67;;;19.42;;
45642;SDS011;31358;46.008;11.144;2023-03-23T00:29:42;32.53;;;20.38;;
45642;SDS011;31358;46.008;11.144;2023-03-23T00:32:09;41.22;;;20.60;;
45642;SDS011;31358;46.008;11.144;2023-03-23T00:34:38;34.45;;;20.52;;
45642;SDS011;31358;46.008;11.144;2023-03-23T00:37:06;34.22;;;19.42;;
45642;SDS011;31358;46.008;11.144;2023-03-23T00:39:32;34.67;;;20.58;;
45642;SDS011;31358;46.008;11.144;2023-03-23T00:41:58;32.10;;;19.50;;
45642;SDS011;31358;46.008;11.144;2023-03-23T00:44:27;35.63;;;21.20;;
45642;SDS011;31358;46.008;11.144;2023-03-23T00:46:55;39.08;;;21.85;;
45642;SDS011;31358;46.008;11.144;2023-03-23T00:49:22;32.80;;;18.98;;
45642;SDS011;31358;46.008;11.144;2023-03-23T00:51:52;33.17;;;20.38;;
45642;SDS011;31358;46.008;11.144;2023-03-23T00:54:19;32.97;;;21.00;;
45642;SDS011;31358;46.008;11.144;2023-03-23T00:56:46;37.83;;;22.20;;
45642;SDS011;31358;46.008;11.144;2023-03-23T00:59:12;33.25;;;20.80;;
45642;SDS011;31358;46.008;11.144;2023-03-23T01:01:39;36.67;;;20.50;;
45642;SDS011;31358;46.008;11.144;2023-03-23T01:04:05;37.00;;;22.20;;
45642;SDS011;31358;46.008;11.144;2023-03-23T01:06:31;35.25;;;20.52;;
45642;SDS011;31358;46.008;11.144;2023-03-23T01:09:00;37.92;;;21.77;;
45642;SDS011;31358;46.008;11.144;2023-03-23T01:11:28;37.90;;;22.25;;
45642;SDS011;31358;46.008;11.144;2023-03-23T01:13:54;31.48;;;20.80;;
45642;SDS011;31358;46.008;11.144;2023-03-23T01:16:20;33.10;;;20.25;;
45642;SDS011;31358;46.008;11.144;2023-03-23T01:18:46;37.05;;;21.95;;
45642;SDS011;31358;46.008;11.144;2023-03-23T01:21:13;31.95;;;19.13;;
45642;SDS011;31358;46.008;11.144;2023-03-23T01:23:40;34.72;;;20.92;;
45642;SDS011;31358;46.008;11.144;2023-03-23T01:26:07;37.70;;;21.70;;
45642;SDS011;31358;46.008;11.144;2023-03-23T01:28:38;39.78;;;21.67;;
45642;SDS011;31358;46.008;11.144;2023-03-23T01:31:05;37.78;;;22.10;;
45642;SDS011;31358;46.008;11.144;2023-03-23T01:33:33;42.13;;;23.52;;
45642;SDS011;31358;46.008;11.144;2023-03-23T01:36:02;44.15;;;20.30;;
45642;SDS011;31358;46.008;11.144;2023-03-23T01:38:36;34.35;;;22.08;;
45642;SDS011;31358;46.008;11.144;2023-03-23T01:41:02;36.58;;;21.92;;
45642;SDS011;31358;46.008;11.144;2023-03-23T01:43:28;35.35;;;22.15;;
45642;SDS011;31358;46.008;11.144;2023-03-23T01:45:54;38.22;;;20.63;;
45642;SDS011;31358;46.008;11.144;2023-03-23T01:53:20;31.55;;;19.67;;
45642;SDS011;31358;46.008;11.144;2023-03-23T01:55:49;35.25;;;21.05;;
45642;SDS011;31358;46.008;11.144;2023-03-23T01:58:19;35.80;;;21.70;;
45642;SDS011;31358;46.008;11.144;2023-03-23T02:00:52;34.67;;;21.60;;
45642;SDS011;31358;46.008;11.144;2023-03-23T02:03:24;40.65;;;24.55;;
45642;SDS011;31358;46.008;11.144;2023-03-23T02:05:50;36.25;;;21.13;;
45642;SDS011;31358;46.008;11.144;2023-03-23T02:08:18;34.47;;;20.58;;
45642;SDS011;31358;46.008;11.144;2023-03-23T02:10:44;33.50;;;20.98;;
45642;SDS011;31358;46.008;11.144;2023-03-23T02:13:10;34.80;;;20.80;;
45642;SDS011;31358;46.008;11.144;2023-03-23T02:26:49;34.53;;;20.50;;
45642;SDS011;31358;46.008;11.144;2023-03-23T02:32:00;34.63;;;20.85;;
45642;SDS011;31358;46.008;11.144;2023-03-23T02:34:46;32.83;;;20.77;;
45642;SDS011;31358;46.008;11.144;2023-03-23T02:37:21;34.30;;;20.02;;
45642;SDS011;31358;46.008;11.144;2023-03-23T02:42:36;35.50;;;23.05;;
45642;SDS011;31358;46.008;11.144;2023-03-23T02:45:05;36.28;;;21.38;;
45642;SDS011;31358;46.008;11.144;2023-03-23T02:47:34;34.33;;;21.88;;
45642;SDS011;31358;46.008;11.144;2023-03-23T02:50:02;37.70;;;20.60;;
45642;SDS011;31358;46.008;11.144;2023-03-23T02:52:30;36.53;;;22.25;;
45642;SDS011;31358;46.008;11.144;2023-03-23T02:54:57;37.92;;;22.17;;
45642;SDS011;31358;46.008;11.144;2023-03-23T02:57:24;37.45;;;22.67;;
45642;SDS011;31358;46.008;11.144;2023-03-23T02:59:52;40.55;;;23.33;;
45642;SDS011;31358;46.008;11.144;2023-03-23T03:02:23;35.08;;;22.52;;
45642;SDS011;31358;46.008;11.144;2023-03-23T03:04:57;35.95;;;21.90;;
45642;SDS011;31358;46.008;11.144;2023-03-23T03:07:30;32.70;;;20.20;;
45642;SDS011;31358;46.008;11.144;2023-03-23T03:10:15;34.92;;;22.05;;
45642;SDS011;31358;46.008;11.144;2023-03-23T03:15:36;38.13;;;22.25;;
45642;SDS011;31358;46.008;11.144;2023-03-23T03:18:24;38.78;;;22.48;;
45642;SDS011;31358;46.008;11.144;2023-03-23T03:20:55;37.88;;;22.48;;
45642;SDS011;31358;46.008;11.144;2023-03-23T03:23:26;38.67;;;23.45;;
45642;SDS011;31358;46.008;11.144;2023-03-23T03:25:53;35.17;;;22.33;;
45642;SDS011;31358;46.008;11.144;2023-03-23T03:28:22;36.13;;;21.90;;
45642;SDS011;31358;46.008;11.144;2023-03-23T03:30:55;38.17;;;23.27;;
45642;SDS011;31358;46.008;11.144;2023-03-23T03:33:25;36.67;;;21.55;;
45642;SDS011;31358;46.008;11.144;2023-03-23T03:35:56;35.30;;;20.58;;
45642;SDS011;31358;46.008;11.144;2023-03-23T03:38:24;35.45;;;19.95;;
45642;SDS011;31358;46.008;11.144;2023-03-23T03:40:51;33.58;;;21.13;;
45642;SDS011;31358;46.008;11.144;2023-03-23T03:43:18;37.65;;;19.95;;
45642;SDS011;31358;46.008;11.144;2023-03-23T03:45:43;34.15;;;21.60;;
45642;SDS011;31358;46.008;11.144;2023-03-23T03:48:09;39.55;;;23.65;;
45642;SDS011;31358;46.008;11.144;2023-03-23T03:50:36;32.38;;;20.88;;
45642;SDS011;31358;46.008;11.144;2023-03-23T03:53:01;40.22;;;23.63;;
45642;SDS011;31358;46.008;11.144;2023-03-23T03:55:28;36.67;;;23.52;;
45642;SDS011;31358;46.008;11.144;2023-03-23T03:57:54;35.70;;;21.98;;
45642;SDS011;31358;46.008;11.144;2023-03-23T04:00:20;37.92;;;22.95;;
45642;SDS011;31358;46.008;11.144;2023-03-23T04:02:49;36.42;;;22.13;;
45642;SDS011;31358;46.008;11.144;2023-03-23T04:05:19;37.30;;;22.90;;
45642;SDS011;31358;46.008;11.144;2023-03-23T04:07:46;38.75;;;22.02;;
45642;SDS011;31358;46.008;11.144;2023-03-23T04:10:14;33.85;;;21.52;;
45642;SDS011;31358;46.008;11.144;2023-03-23T04:12:40;41.38;;;23.65;;
45642;SDS011;31358;46.008;11.144;2023-03-23T04:15:06;34.20;;;22.02;;
45642;SDS011;31358;46.008;11.144;2023-03-23T04:17:33;41.50;;;23.13;;
45642;SDS011;31358;46.008;11.144;2023-03-23T04:19:59;42.00;;;24.50;;
45642;SDS011;31358;46.008;11.144;2023-03-23T04:22:25;40.42;;;22.85;;
45642;SDS011;31358;46.008;11.144;2023-03-23T04:24:58;35.05;;;22.33;;
45642;SDS011;31358;46.008;11.144;2023-03-23T04:27:25;40.42;;;22.70;;
45642;SDS011;31358;46.008;11.144;2023-03-23T04:29:56;38.80;;;23.80;;
45642;SDS011;31358;46.008;11.144;2023-03-23T04:32:23;37.65;;;23.63;;
45642;SDS011;31358;46.008;11.144;2023-03-23T04:34:57;38.97;;;22.92;;
45642;SDS011;31358;46.008;11.144;2023-03-23T04:37:24;42.50;;;24.13;;
45642;SDS011;31358;46.008;11.144;2023-03-23T04:39:54;35.95;;;22.60;;
45642;SDS011;31358;46.008;11.144;2023-03-23T04:42:29;37.05;;;23.23;;
45642;SDS011;31358;46.008;11.144;2023-03-23T04:44:58;42.90;;;24.67;;
45642;SDS011;31358;46.008;11.144;2023-03-23T04:47:25;37.63;;;21.75;;
45642;SDS011;31358;46.008;11.144;2023-03-23T04:49:55;37.15;;;22.13;;
45642;SDS011;31358;46.008;11.144;2023-03-23T04:52:22;36.50;;;22.70;;
45642;SDS011;31358;46.008;11.144;2023-03-23T04:54:51;33.92;;;21.80;;
45642;SDS011;31358;46.008;11.144;2023-03-23T04:57:17;37.08;;;22.17;;
45642;SDS011;31358;46.008;11.144;2023-03-23T04:59:43;32.58;;;20.60;;
45642;SDS011;31358;46.008;11.144;2023-03-23T05:02:11;38.83;;;23.15;;
45642;SDS011;31358;46.008;11.144;2023-03-23T05:04:38;37.33;;;21.05;;
45642;SDS011;31358;46.008;11.144;2023-03-23T05:07:05;35.15;;;21.40;;
45642;SDS011;31358;46.008;11.144;2023-03-23T05:09:32;39.30;;;21.83;;
45642;SDS011;31358;46.008;11.144;2023-03-23T05:12:03;35.38;;;22.17;;
45642;SDS011;31358;46.008;11.144;2023-03-23T05:14:33;36.72;;;22.30;;
45642;SDS011;31358;46.008;11.144;2023-03-23T05:16:59;41.35;;;23.67;;
45642;SDS011;31358;46.008;11.144;2023-03-23T05:19:25;35.58;;;22.42;;
45642;SDS011;31358;46.008;11.144;2023-03-23T05:21:52;41.88;;;23.23;;
45642;SDS011;31358;46.008;11.144;2023-03-23T05:24:19;33.97;;;23.00;;
45642;SDS011;31358;46.008;11.144;2023-03-23T05:26:45;42.25;;;24.27;;
45642;SDS011;31358;46.008;11.144;2023-03-23T05:29:13;39.45;;;22.00;;
45642;SDS011;31358;46.008;11.144;2023-03-23T05:31:40;40.70;;;23.30;;
45642;SDS011;31358;46.008;11.144;2023-03-23T05:34:06;44.30;;;23.02;;
45642;SDS011;31358;46.008;11.144;2023-03-23T05:36:32;40.83;;;23.48;;
45642;SDS011;31358;46.008;11.144;2023-03-23T05:38:57;40.65;;;24.10;;
45642;SDS011;31358;46.008;11.144;2023-03-23T05:41:25;40.90;;;22.30;;
45642;SDS011;31358;46.008;11.144;2023-03-23T05:43:51;34.08;;;21.83;;
45642;SDS011;31358;46.008;11.144;2023-03-23T05:46:17;41.42;;;23.60;;
45642;SDS011;31358;46.008;11.144;2023-03-23T05:48:43;34.90;;;22.02;;
45642;SDS011;31358;46.008;11.144;2023-03-23T05:51:08;43.22;;;25.23;;
45642;SDS011;31358;46.008;11.144;2023-03-23T05:53:34;40.88;;;23.95;;
45642;SDS011;31358;46.008;11.144;2023-03-23T05:56:01;39.28;;;23.30;;
45642;SDS011;31358;46.008;11.144;2023-03-23T05:58:28;38.70;;;22.67;;
45642;SDS011;31358;46.008;11.144;2023-03-23T06:00:54;37.65;;;23.00;;
45642;SDS011;31358;46.008;11.144;2023-03-23T06:03:20;36.78;;;22.92;;
45642;SDS011;31358;46.008;11.144;2023-03-23T06:05:47;37.20;;;23.67;;
45642;SDS011;31358;46.008;11.144;2023-03-23T06:08:13;35.72;;;23.55;;
45642;SDS011;31358;46.008;11.144;2023-03-23T06:10:39;40.83;;;24.17;;
45642;SDS011;31358;46.008;11.144;2023-03-23T06:13:04;40.42;;;25.13;;
45642;SDS011;31358;46.008;11.144;2023-03-23T06:15:31;36.40;;;24.90;;
45642;SDS011;31358;46.008;11.144;2023-03-23T06:17:58;36.90;;;22.25;;
45642;SDS011;31358;46.008;11.144;2023-03-23T06:20:24;36.00;;;22.17;;
45642;SDS011;31358;46.008;11.144;2023-03-23T06:22:50;40.92;;;22.73;;
45642;SDS011;31358;46.008;11.144;2023-03-23T06:25:17;37.83;;;22.80;;
45642;SDS011;31358;46.008;11.144;2023-03-23T06:27:44;35.70;;;21.67;;
45642;SDS011;31358;46.008;11.144;2023-03-23T06:30:11;36.53;;;21.92;;
45642;SDS011;31358;46.008;11.144;2023-03-23T06:32:37;31.30;;;21.13;;
45642;SDS011;31358;46.008;11.144;2023-03-23T06:35:04;37.78;;;21.88;;
45642;SDS011;31358;46.008;11.144;2023-03-23T06:37:31;34.85;;;21.50;;
45642;SDS011;31358;46.008;11.144;2023-03-23T06:39:57;35.55;;;22.40;;
45642;SDS011;31358;46.008;11.144;2023-03-23T06:42:23;41.13;;;23.50;;
45642;SDS011;31358;46.008;11.144;2023-03-23T06:44:50;32.22;;;22.33;;
45642;SDS011;31358;46.008;11.144;2023-03-23T06:47:16;34.15;;;22.17;;
45642;SDS011;31358;46.008;11.144;2023-03-23T06:49:42;39.03;;;21.92;;
45642;SDS011;31358;46.008;11.144;2023-03-23T06:52:08;34.80;;;22.23;;
45642;SDS011;31358;46.008;11.144;2023-03-23T06:54:33;32.15;;;22.13;;
45642;SDS011;31358;46.008;11.144;2023-03-23T06:56:59;35.50;;;21.27;;
45642;SDS011;31358;46.008;11.144;2023-03-23T06:59:26;37.03;;;24.40;;
45642;SDS011;31358;46.008;11.144;2023-03-23T07:01:51;35.88;;;21.55;;
45642;SDS011;31358;46.008;11.144;2023-03-23T07:04:17;34.60;;;22.33;;
45642;SDS011;31358;46.008;11.144;2023-03-23T07:06:43;36.55;;;23.17;;
45642;SDS011;31358;46.008;11.144;2023-03-23T07:09:09;36.38;;;23.30;;
45642;SDS011;31358;46.008;11.144;2023-03-23T07:11:35;38.08;;;22.33;;
45642;SDS011;31358;46.008;11.144;2023-03-23T07:14:01;39.15;;;23.27;;
45642;SDS011;31358;46.008;11.144;2023-03-23T07:16:28;32.40;;;22.05;;
45642;SDS011;31358;46.008;11.144;2023-03-23T07:18:53;36.22;;;21.20;;
45642;SDS011;31358;46.008;11.144;2023-03-23T07:21:19;36.38;;;22.25;;
45642;SDS011;31358;46.008;11.144;2023-03-23T07:23:45;31.25;;;22.08;;
45642;SDS011;31358;46.008;11.144;2023-03-23T07:26:11;35.85;;;23.15;;
45642;SDS011;31358;46.008;11.144;2023-03-23T07:28:37;31.42;;;21.90;;
45642;SDS011;31358;46.008;11.144;2023-03-23T07:31:05;41.40;;;23.55;;
45642;SDS011;31358;46.008;11.144;2023-03-23T07:33:30;36.15;;;22.17;;
45642;SDS011;31358;46.008;11.144;2023-03-23T07:35:58;33.95;;;22.80;;
45642;SDS011;31358;46.008;11.144;2023-03-23T07:38:25;34.22;;;21.27;;
45642;SDS011;31358;46.008;11.144;2023-03-23T07:40:52;39.78;;;25.17;;
45642;SDS011;31358;46.008;11.144;2023-03-23T07:43:18;33.58;;;22.95;;
45642;SDS011;31358;46.008;11.144;2023-03-23T07:45:45;40.05;;;24.63;;
45642;SDS011;31358;46.008;11.144;2023-03-23T07:48:11;36.35;;;24.15;;
45642;SDS011;31358;46.008;11.144;2023-03-23T07:50:37;38.92;;;24.20;;
45642;SDS011;31358;46.008;11.144;2023-03-23T07:53:03;33.53;;;22.48;;
45642;SDS011;31358;46.008;11.144;2023-03-23T07:55:29;31.15;;;21.65;;
45642;SDS011;31358;46.008;11.144;2023-03-23T07:57:55;33.25;;;21.40;;
45642;SDS011;31358;46.008;11.144;2023-03-23T08:00:20;30.17;;;21.00;;
45642;SDS011;31358;46.008;11.144;2023-03-23T08:02:52;32.70;;;22.70;;
45642;SDS011;31358;46.008;11.144;2023-03-23T08:05:23;31.70;;;21.88;;
45642;SDS011;31358;46.008;11.144;2023-03-23T08:07:51;37.92;;;24.20;;
45642;SDS011;31358;46.008;11.144;2023-03-23T08:10:19;34.53;;;23.05;;
45642;SDS011;31358;46.008;11.144;2023-03-23T08:12:50;35.22;;;23.33;;
45642;SDS011;31358;46.008;11.144;2023-03-23T08:15:17;36.50;;;21.33;;
45642;SDS011;31358;46.008;11.144;2023-03-23T08:17:43;36.90;;;23.77;;
45642;SDS011;31358;46.008;11.144;2023-03-23T08:20:10;39.05;;;23.65;;
45642;SDS011;31358;46.008;11.144;2023-03-23T08:22:40;32.65;;;22.90;;
45642;SDS011;31358;46.008;11.144;2023-03-23T08:25:08;38.53;;;24.73;;
45642;SDS011;31358;46.008;11.144;2023-03-23T08:27:35;32.72;;;22.10;;
45642;SDS011;31358;46.008;11.144;2023-03-23T08:30:02;35.72;;;23.58;;
45642;SDS011;31358;46.008;11.144;2023-03-23T08:32:30;36.42;;;23.45;;
45642;SDS011;31358;46.008;11.144;2023-03-23T08:34:56;32.67;;;23.13;;
45642;SDS011;31358;46.008;11.144;2023-03-23T08:37:22;35.05;;;23.73;;
45642;SDS011;31358;46.008;11.144;2023-03-23T08:39:53;44.20;;;22.73;;
45642;SDS011;31358;46.008;11.144;2023-03-23T08:42:19;42.30;;;22.85;;
45642;SDS011;31358;46.008;11.144;2023-03-23T08:44:45;40.97;;;22.38;;
45642;SDS011;31358;46.008;11.144;2023-03-23T08:47:10;35.88;;;24.27;;
45642;SDS011;31358;46.008;11.144;2023-03-23T08:49:36;35.00;;;22.80;;
45642;SDS011;31358;46.008;11.144;2023-03-23T08:52:02;38.97;;;24.63;;
45642;SDS011;31358;46.008;11.144;2023-03-23T08:54:28;36.92;;;24.10;;
45642;SDS011;31358;46.008;11.144;2023-03-23T08:57:00;35.58;;;23.75;;
45642;SDS011;31358;46.008;11.144;2023-03-23T08:59:26;39.05;;;24.67;;
45642;SDS011;31358;46.008;11.144;2023-03-23T09:01:52;33.53;;;23.35;;
45642;SDS011;31358;46.008;11.144;2023-03-23T09:04:19;32.78;;;21.90;;
45642;SDS011;31358;46.008;11.144;2023-03-23T09:06:45;37.33;;;23.90;;
45642;SDS011;31358;46.008;11.144;2023-03-23T09:09:11;38.33;;;22.52;;
45642;SDS011;31358;46.008;11.144;2023-03-23T09:11:37;39.58;;;23.52;;
45642;SDS011;31358;46.008;11.144;2023-03-23T09:14:04;36.58;;;24.17;;
45642;SDS011;31358;46.008;11.144;2023-03-23T09:16:32;38.10;;;23.83;;
45642;SDS011;31358;46.008;11.144;2023-03-23T09:18:58;54.28;;;25.23;;
45642;SDS011;31358;46.008;11.144;2023-03-23T09:21:25;41.42;;;25.13;;
45642;SDS011;31358;46.008;11.144;2023-03-23T09:23:52;37.40;;;24.25;;
45642;SDS011;31358;46.008;11.144;2023-03-23T09:26:18;35.22;;;24.08;;
45642;SDS011;31358;46.008;11.144;2023-03-23T09:28:44;40.20;;;23.98;;
45642;SDS011;31358;46.008;11.144;2023-03-23T09:31:11;33.03;;;23.00;;
45642;SDS011;31358;46.008;11.144;2023-03-23T09:33:37;34.92;;;24.20;;
45642;SDS011;31358;46.008;11.144;2023-03-23T09:36:04;36.42;;;23.85;;
45642;SDS011;31358;46.008;11.144;2023-03-23T09:38:31;37.22;;;23.83;;
45642;SDS011;31358;46.008;11.144;2023-03-23T09:44:26;37.63;;;23.35;;
45642;SDS011;31358;46.008;11.144;2023-03-23T09:46:54;36.70;;;22.55;;
45642;SDS011;31358;46.008;11.144;2023-03-23T09:52:22;36.55;;;24.77;;
45642;SDS011;31358;46.008;11.144;2023-03-23T09:54:54;35.58;;;21.42;;
45642;SDS011;31358;46.008;11.144;2023-03-23T09:59:54;36.17;;;23.65;;
45642;SDS011;31358;46.008;11.144;2023-03-23T10:02:39;34.55;;;22.98;;
45642;SDS011;31358;46.008;11.144;2023-03-23T10:07:41;40.85;;;24.42;;
45642;SDS011;31358;46.008;11.144;2023-03-23T10:10:08;33.17;;;23.33;;
45642;SDS011;31358;46.008;11.144;2023-03-23T10:12:49;32.45;;;23.90;;
45642;SDS011;31358;46.008;11.144;2023-03-23T10:15:23;93.95;;;26.13;;
45642;SDS011;31358;46.008;11.144;2023-03-23T10:20:33;32.28;;;23.40;;
45642;SDS011;31358;46.008;11.144;2023-03-23T10:26:32;31.35;;;22.75;;
45642;SDS011;31358;46.008;11.144;2023-03-23T10:29:19;32.22;;;21.95;;
45642;SDS011;31358;46.008;11.144;2023-03-23T10:31:58;34.38;;;22.58;;
45642;SDS011;31358;46.008;11.144;2023-03-23T10:34:39;33.45;;;22.92;;
45642;SDS011;31358;46.008;11.144;2023-03-23T10:37:23;33.00;;;23.67;;
45642;SDS011;31358;46.008;11.144;2023-03-23T10:40:01;36.85;;;22.63;;
45642;SDS011;31358;46.008;11.144;2023-03-23T10:42:35;38.35;;;23.27;;
45642;SDS011;31358;46.008;11.144;2023-03-23T10:45:11;38.45;;;23.98;;
45642;SDS011;31358;46.008;11.144;2023-03-23T10:47:43;37.00;;;25.08;;
45642;SDS011;31358;46.008;11.144;2023-03-23T10:50:30;40.78;;;25.25;;
45642;SDS011;31358;46.008;11.144;2023-03-23T10:52:59;38.17;;;24.48;;
45642;SDS011;31358;46.008;11.144;2023-03-23T10:55:35;34.95;;;23.90;;
45642;SDS011;31358;46.008;11.144;2023-03-23T11:00:31;32.65;;;22.98;;
45642;SDS011;31358;46.008;11.144;2023-03-23T11:05:40;40.60;;;23.80;;
45642;SDS011;31358;46.008;11.144;2023-03-23T11:08:19;32.70;;;22.90;;
45642;SDS011;31358;46.008;11.144;2023-03-23T11:10:52;33.80;;;23.15;;
45642;SDS011;31358;46.008;11.144;2023-03-23T11:13:21;36.55;;;23.23;;
45642;SDS011;31358;46.008;11.144;2023-03-23T11:15:50;34.33;;;25.40;;
45642;SDS011;31358;46.008;11.144;2023-03-23T11:18:19;37.13;;;23.50;;
45642;SDS011;31358;46.008;11.144;2023-03-23T11:20:54;34.75;;;23.45;;
45642;SDS011;31358;46.008;11.144;2023-03-23T11:23:22;40.67;;;25.60;;
45642;SDS011;31358;46.008;11.144;2023-03-23T11:25:55;33.47;;;23.30;;
45642;SDS011;31358;46.008;11.144;2023-03-23T11:28:37;36.47;;;23.30;;
45642;SDS011;31358;46.008;11.144;2023-03-23T11:31:11;37.67;;;24.35;;
45642;SDS011;31358;46.008;11.144;2023-03-23T11:37:03;35.83;;;24.08;;
45642;SDS011;31358;46.008;11.144;2023-03-23T11:39:31;31.98;;;21.25;;
45642;SDS011;31358;46.008;11.144;2023-03-23T11:42:18;31.23;;;21.27;;
45642;SDS011;31358;46.008;11.144;2023-03-23T11:44:45;28.15;;;20.85;;
45642;SDS011;31358;46.008;11.144;2023-03-23T11:54:56;35.85;;;22.05;;
45642;SDS011;31358;46.008;11.144;2023-03-23T11:57:33;30.23;;;22.40;;
45642;SDS011;31358;46.008;11.144;2023-03-23T11:59:59;32.45;;;22.15;;
45642;SDS011;31358;46.008;11.144;2023-03-23T12:02:47;37.05;;;23.73;;
45642;SDS011;31358;46.008;11.144;2023-03-23T12:21:17;32.40;;;22.50;;
45642;SDS011;31358;46.008;11.144;2023-03-23T12:39:34;28.35;;;18.35;;
45642;SDS011;31358;46.008;11.144;2023-03-23T12:44:39;26.98;;;17.55;;
45642;SDS011;31358;46.008;11.144;2023-03-23T12:57:32;20.85;;;13.25;;
45642;SDS011;31358;46.008;11.144;2023-03-23T13:00:21;22.17;;;13.13;;
45642;SDS011;31358;46.008;11.144;2023-03-23T13:03:09;20.80;;;12.38;;
45642;SDS011;31358;46.008;11.144;2023-03-23T13:05:54;29.23;;;17.25;;
45642;SDS011;31358;46.008;11.144;2023-03-23T13:08:36;26.67;;;15.35;;
45642;SDS011;31358;46.008;11.144;2023-03-23T13:11:08;26.77;;;15.10;;
45642;SDS011;31358;46.008;11.144;2023-03-23T13:13:49;26.52;;;16.05;;
45642;SDS011;31358;46.008;11.144;2023-03-23T13:21:38;25.08;;;14.93;;
45642;SDS011;31358;46.008;11.144;2023-03-23T13:24:17;26.48;;;13.20;;
45642;SDS011;31358;46.008;11.144;2023-03-23T13:26:46;23.42;;;14.73;;
45642;SDS011;31358;46.008;11.144;2023-03-23T13:29:17;26.08;;;15.63;;
45642;SDS011;31358;46.008;11.144;2023-03-23T13:31:45;25.98;;;15.98;;
45642;SDS011;31358;46.008;11.144;2023-03-23T13:37:05;22.55;;;14.63;;
45642;SDS011;31358;46.008;11.144;2023-03-23T13:53:12;31.30;;;15.20;;
45642;SDS011;31358;46.008;11.144;2023-03-23T13:55:41;23.50;;;14.23;;
45642;SDS011;31358;46.008;11.144;2023-03-23T14:00:35;24.98;;;13.27;;
45642;SDS011;31358;46.008;11.144;2023-03-23T14:03:12;22.58;;;13.43;;
45642;SDS011;31358;46.008;11.144;2023-03-23T14:13:38;24.25;;;13.55;;
45642;SDS011;31358;46.008;11.144;2023-03-23T14:16:24;26.67;;;15.43;;
45642;SDS011;31358;46.008;11.144;2023-03-23T14:18:59;21.98;;;13.23;;
45642;SDS011;31358;46.008;11.144;2023-03-23T14:24:09;26.70;;;13.60;;
45642;SDS011;31358;46.008;11.144;2023-03-23T14:26:37;22.63;;;14.27;;
45642;SDS011;31358;46.008;11.144;2023-03-23T14:29:03;25.98;;;13.88;;
45642;SDS011;31358;46.008;11.144;2023-03-23T14:31:30;25.88;;;13.73;;
45642;SDS011;31358;46.008;11.144;2023-03-23T14:34:00;23.30;;;12.80;;
45642;SDS011;31358;46.008;11.144;2023-03-23T14:36:29;24.08;;;12.82;;
45642;SDS011;31358;46.008;11.144;2023-03-23T14:39:01;23.48;;;12.02;;
45642;SDS011;31358;46.008;11.144;2023-03-23T14:41:28;22.15;;;12.23;;
45642;SDS011;31358;46.008;11.144;2023-03-23T14:43:55;18.27;;;10.38;;
45642;SDS011;31358;46.008;11.144;2023-03-23T14:46:23;21.67;;;11.32;;
45642;SDS011;31358;46.008;11.144;2023-03-23T14:48:50;19.38;;;10.95;;
45642;SDS011;31358;46.008;11.144;2023-03-23T14:51:19;17.08;;;10.48;;
45642;SDS011;31358;46.008;11.144;2023-03-23T14:53:46;20.00;;;11.43;;
45642;SDS011;31358;46.008;11.144;2023-03-23T14:56:18;24.15;;;10.55;;
45642;SDS011;31358;46.008;11.144;2023-03-23T14:58:49;19.05;;;10.32;;
45642;SDS011;31358;46.008;11.144;2023-03-23T15:01:18;20.67;;;10.25;;
45642;SDS011;31358;46.008;11.144;2023-03-23T15:06:39;21.63;;;13.55;;
45642;SDS011;31358;46.008;11.144;2023-03-23T15:09:19;26.02;;;15.25;;
45642;SDS011;31358;46.008;11.144;2023-03-23T15:11:52;22.60;;;13.15;;
45642;SDS011;31358;46.008;11.144;2023-03-23T15:14:25;19.52;;;11.68;;
45642;SDS011;31358;46.008;11.144;2023-03-23T15:16:57;19.52;;;11.88;;
45642;SDS011;31358;46.008;11.144;2023-03-23T15:19:27;33.38;;;16.10;;
45642;SDS011;31358;46.008;11.144;2023-03-23T15:22:05;20.93;;;10.83;;
45642;SDS011;31358;46.008;11.144;2023-03-23T15:24:47;20.60;;;11.05;;
45642;SDS011;31358;46.008;11.144;2023-03-23T15:27:30;26.55;;;14.07;;
45642;SDS011;31358;46.008;11.144;2023-03-23T15:32:51;26.17;;;16.27;;
45642;SDS011;31358;46.008;11.144;2023-03-23T15:35:19;21.92;;;12.00;;
45642;SDS011;31358;46.008;11.144;2023-03-23T15:37:51;31.70;;;17.75;;
45642;SDS011;31358;46.008;11.144;2023-03-23T15:40:26;23.33;;;10.90;;
45642;SDS011;31358;46.008;11.144;2023-03-23T15:43:15;18.70;;;9.30;;
45642;SDS011;31358;46.008;11.144;2023-03-23T15:48:23;20.45;;;11.23;;
45642;SDS011;31358;46.008;11.144;2023-03-23T15:50:49;18.55;;;10.85;;
45642;SDS011;31358;46.008;11.144;2023-03-23T15:53:22;18.75;;;10.25;;
45642;SDS011;31358;46.008;11.144;2023-03-23T15:55:55;23.33;;;10.32;;
45642;SDS011;31358;46.008;11.144;2023-03-23T15:58:22;21.05;;;10.85;;
45642;SDS011;31358;46.008;11.144;2023-03-23T16:00:48;19.77;;;10.57;;
45642;SDS011;31358;46.008;11.144;2023-03-23T16:03:21;22.35;;;12.02;;
45642;SDS011;31358;46.008;11.144;2023-03-23T16:05:51;19.05;;;11.02;;
45642;SDS011;31358;46.008;11.144;2023-03-23T16:08:18;19.85;;;11.40;;
45642;SDS011;31358;46.008;11.144;2023-03-23T16:10:43;23.60;;;13.18;;
45642;SDS011;31358;46.008;11.144;2023-03-23T16:13:10;19.88;;;10.60;;
45642;SDS011;31358;46.008;11.144;2023-03-23T16:15:35;22.73;;;10.80;;
45642;SDS011;31358;46.008;11.144;2023-03-23T16:18:01;27.20;;;17.05;;
45642;SDS011;31358;46.008;11.144;2023-03-23T16:20:27;22.60;;;11.35;;
45642;SDS011;31358;46.008;11.144;2023-03-23T16:22:54;18.92;;;9.10;;
45642;SDS011;31358;46.008;11.144;2023-03-23T16:25:20;20.27;;;10.70;;
45642;SDS011;31358;46.008;11.144;2023-03-23T16:27:46;18.23;;;8.02;;
45642;SDS011;31358;46.008;11.144;2023-03-23T16:30:16;18.40;;;9.40;;
45642;SDS011;31358;46.008;11.144;2023-03-23T16:32:47;18.67;;;9.38;;
45642;SDS011;31358;46.008;11.144;2023-03-23T16:35:13;21.98;;;9.45;;
45642;SDS011;31358;46.008;11.144;2023-03-23T16:37:43;20.65;;;10.57;;
45642;SDS011;31358;46.008;11.144;2023-03-23T16:40:13;18.07;;;9.47;;
45642;SDS011;31358;46.008;11.144;2023-03-23T16:42:40;22.65;;;9.00;;
45642;SDS011;31358;46.008;11.144;2023-03-23T16:45:06;21.05;;;9.27;;
45642;SDS011;31358;46.008;11.144;2023-03-23T16:47:32;19.42;;;9.15;;